»·PEaware :: N717TS KYKM-KOTH

N717TS :: KYKM-KOTH

FLIGHT INFORMATION

Flight Status: Arrived
Operator: Privately registered:
United States
More flights under this callsign
Pilot: Ty S. (2873)
Aircraft: MITSUBISHI MU-2 MARQUISE
(MU2)
More flights by this aircraft type
Origin: KYKM Yakima Air Term/Mcallister
United States
Destination: KOTH North Bend Mun
United States
More flights between these airports :: More routes between these airports
Route: GROMO4 HITCH EUG
File this flight plan on PilotEdge
Remarks:
Altitude:
(Current/Filed)
24,000ft
Speed:
(Current/Filed)
280kts
Departed: 27-Oct-17 04:19 PM
Arrived: 27-Oct-17 05:23 PM
Distance/Time
Traveled:
246nm/1:04
Distance/Time
To Go:
Arrived

Flight Plot

Page will automatically refresh every two minutes.

Flight plan parsing failed; only flown route is shown


Map Options




Map Legend


Flown Route
Filed Route
Departure Airport
Arrival Airport
Navaid (VOR, NDB)
Fix

Horizontal Profiles

Position Reports

Time Latitude Longitude Heading Altitude Ground
Speed
27-Oct-17 15:47 46.572983 -120.553477 287 1099ft 0kts
27-Oct-17 15:48 46.572983 -120.553477 287 1099ft 0kts
27-Oct-17 15:49 46.572983 -120.553477 287 1099ft 0kts
27-Oct-17 15:50 46.572983 -120.553477 287 1099ft 0kts
27-Oct-17 15:51 46.572983 -120.553477 287 1099ft 0kts
27-Oct-17 15:52 46.572983 -120.553477 287 1099ft 0kts
27-Oct-17 15:53 46.572983 -120.553477 287 1099ft 0kts
27-Oct-17 15:54 46.572983 -120.553477 287 1099ft 0kts
27-Oct-17 15:55 46.572983 -120.553477 287 1099ft 0kts
27-Oct-17 15:56 46.572983 -120.553477 287 1099ft 0kts
27-Oct-17 15:57 46.572983 -120.553477 287 1099ft 0kts
27-Oct-17 15:58 46.572983 -120.553477 287 1099ft 0kts
27-Oct-17 15:59 46.572983 -120.553477 287 1099ft 0kts
27-Oct-17 16:00 46.572983 -120.553477 287 1099ft 0kts
27-Oct-17 16:01 46.572983 -120.553477 287 1099ft 0kts
27-Oct-17 16:02 46.572983 -120.553478 286 1099ft 0kts
27-Oct-17 16:03 46.572984 -120.553479 288 1099ft 0kts
27-Oct-17 16:04 46.572984 -120.553479 287 1099ft 0kts
27-Oct-17 16:05 46.572984 -120.553479 287 1099ft 0kts
27-Oct-17 16:06 46.572984 -120.553479 287 1099ft 0kts
27-Oct-17 16:07 46.572984 -120.553479 287 1099ft 0kts
27-Oct-17 16:08 46.572984 -120.553479 287 1099ft 0kts
27-Oct-17 16:09 46.572984 -120.553479 287 1099ft 0kts
27-Oct-17 16:10 46.572984 -120.553479 287 1099ft 0kts
27-Oct-17 16:11 46.572984 -120.553479 287 1099ft 0kts
27-Oct-17 16:12 46.572984 -120.553479 287 1099ft 0kts
27-Oct-17 16:13 46.572985 -120.553484 288 1099ft 0kts
27-Oct-17 16:14 46.572999 -120.553548 286 1099ft 0kts
27-Oct-17 16:15 46.572730 -120.553826 209 1099ft 1kts
27-Oct-17 16:16 46.571997 -120.552664 109 1099ft 3kts
27-Oct-17 16:17 46.571009 -120.548715 108 1098ft 10kts
27-Oct-17 16:18 46.569876 -120.544167 108 1099ft 16kts
27-Oct-17 16:19 46.568586 -120.539000 109 1099ft 15kts
27-Oct-17 16:20 46.567078 -120.533059 108 1098ft 6kts
27-Oct-17 16:21 46.566463 -120.531517 177 1098ft 0kts
27-Oct-17 16:22 46.566418 -120.531518 180 1099ft 0kts
27-Oct-17 16:23 46.565602 -120.531850 292 1099ft 0kts
27-Oct-17 16:24 46.568684 -120.544150 290 1127ft 133kts
27-Oct-17 16:25 46.571049 -120.604297 271 3308ft 171kts
27-Oct-17 16:26 46.569817 -120.675261 239 5781ft 196kts
27-Oct-17 16:27 46.513051 -120.668600 146 7382ft 247kts
27-Oct-17 16:28 46.453578 -120.616106 186 8755ft 267kts
27-Oct-17 16:29 46.401961 -120.686825 237 9825ft 275kts
27-Oct-17 16:30 46.356714 -120.761727 222 12558ft 242kts
27-Oct-17 16:31 46.303635 -120.824613 220 14496ft 252kts
27-Oct-17 16:32 46.249331 -120.887360 220 16340ft 260kts
27-Oct-17 16:33 46.192217 -120.953087 220 18170ft 266kts
27-Oct-17 16:34 46.134154 -121.019729 220 19999ft 269kts
27-Oct-17 16:35 46.075346 -121.087029 220 21809ft 272kts
27-Oct-17 16:36 46.015839 -121.154930 220 23592ft 275kts
27-Oct-17 16:37 45.952035 -121.227795 220 23999ft 315kts
27-Oct-17 16:38 45.886204 -121.302463 220 23986ft 331kts
27-Oct-17 16:39 45.813963 -121.384125 220 23981ft 335kts
27-Oct-17 16:40 45.740752 -121.466615 220 23979ft 336kts
27-Oct-17 16:41 45.667442 -121.548938 220 23979ft 336kts
27-Oct-17 16:42 45.594130 -121.630983 220 23979ft 336kts
27-Oct-17 16:43 45.521801 -121.711654 219 23981ft 336kts
27-Oct-17 16:44 45.448124 -121.793551 219 23981ft 336kts
27-Oct-17 16:45 45.374535 -121.875056 219 23981ft 336kts
27-Oct-17 16:46 45.300608 -121.956649 219 23981ft 336kts
27-Oct-17 16:47 45.226860 -122.037792 219 23981ft 336kts
27-Oct-17 16:48 45.153034 -122.118751 219 23981ft 336kts
27-Oct-17 16:49 45.080574 -122.197876 219 23981ft 336kts
27-Oct-17 16:50 45.006621 -122.278424 219 23981ft 336kts
27-Oct-17 16:51 44.932527 -122.358866 219 23981ft 336kts
27-Oct-17 16:52 44.862123 -122.435054 219 23979ft 336kts
27-Oct-17 16:53 44.787997 -122.515007 219 23979ft 336kts
27-Oct-17 16:54 44.713836 -122.594735 219 23979ft 336kts
27-Oct-17 16:55 44.641758 -122.671973 218 23980ft 336kts
27-Oct-17 16:56 44.567109 -122.751712 218 23824ft 342kts
27-Oct-17 16:57 44.491139 -122.832563 218 22147ft 340kts
27-Oct-17 16:58 44.416835 -122.911404 218 20436ft 332kts
27-Oct-17 16:59 44.344719 -122.987671 218 18748ft 318kts
27-Oct-17 17:00 44.275396 -123.060774 218 17076ft 307kts
27-Oct-17 17:01 44.208112 -123.131508 218 15441ft 300kts
27-Oct-17 17:02 44.150497 -123.211494 232 13836ft 291kts
27-Oct-17 17:03 44.099461 -123.297193 232 12275ft 285kts
27-Oct-17 17:04 44.049194 -123.381192 232 10745ft 280kts
27-Oct-17 17:05 43.999869 -123.463375 232 9249ft 275kts
27-Oct-17 17:06 43.951482 -123.543767 232 7786ft 269kts
27-Oct-17 17:07 43.903784 -123.622796 232 6347ft 264kts
27-Oct-17 17:08 43.859289 -123.696317 231 5021ft 260kts
27-Oct-17 17:09 43.812879 -123.772814 231 4862ft 259kts
27-Oct-17 17:10 43.766674 -123.848765 232 4863ft 259kts
27-Oct-17 17:11 43.720384 -123.924901 232 4854ft 256kts
27-Oct-17 17:12 43.680477 -123.989830 232 4851ft 195kts
27-Oct-17 17:13 43.667167 -124.053851 287 4179ft 193kts
27-Oct-17 17:14 43.682173 -124.126193 279 2977ft 198kts
27-Oct-17 17:15 43.677864 -124.200175 262 2339ft 178kts
27-Oct-17 17:16 43.674394 -124.269433 267 2516ft 187kts
27-Oct-17 17:17 43.647725 -124.331829 224 2538ft 199kts
27-Oct-17 17:18 43.619898 -124.396267 251 2387ft 198kts
27-Oct-17 17:19 43.582605 -124.451125 223 2548ft 194kts
27-Oct-17 17:20 43.537442 -124.497076 205 2504ft 211kts
27-Oct-17 17:21 43.480586 -124.514113 194 2517ft 208kts
27-Oct-17 17:22 43.424547 -124.532687 196 2417ft 203kts
27-Oct-17 17:23 43.369038 -124.526635 161 2502ft 203kts
27-Oct-17 17:24 43.334556 -124.472642 70 2187ft 216kts
27-Oct-17 17:25 43.356856 -124.397264 55 1341ft 214kts
27-Oct-17 17:26 43.386558 -124.326844 56 937ft 196kts
27-Oct-17 17:27 43.409231 -124.273826 57 318ft 151kts
27-Oct-17 17:28 43.421551 -124.243859 60 21ft 12kts
27-Oct-17 17:29 43.420084 -124.244446 241 21ft 11kts
27-Oct-17 17:30 43.418890 -124.246868 168 21ft 11kts
27-Oct-17 17:31 43.416722 -124.246762 149 21ft 7kts
27-Oct-17 17:32 43.416641 -124.246383 60 21ft 0kts
27-Oct-17 17:33 43.416695 -124.246244 61 21ft 0kts
27-Oct-17 17:34 43.416711 -124.246205 61 21ft 0kts
27-Oct-17 17:35 43.416711 -124.246205 61 21ft 0kts
27-Oct-17 17:36 43.416711 -124.246205 61 21ft 0kts
27-Oct-17 17:37 43.416711 -124.246205 61 21ft 0kts
27-Oct-17 17:38 43.416711 -124.246205 61 21ft 0kts
27-Oct-17 17:39 43.416711 -124.246205 61 21ft 0kts
27-Oct-17 17:40 43.416711 -124.246205 61 21ft 0kts
27-Oct-17 17:41 43.416711 -124.246205 61 21ft 0kts

Navigation Log

Ident Type
Flight plan parsing failed, navigation log unavailable